Kezdőlap
METAR-TAF:

METAR-TAF

Repülőterek :

Lac Qui Parle County Airport

Madison, Minnesota, Amerikai Egyesült Államok

földrajzi szélesség: 44-59-10N, földrajzi hosszúság: 096-10-40W, magasság: 330 m

Jelenlegi meteorológiai megfigyelések

A jelentés 24 perccel ezelõtt készült, 02:15 UTC
Déli szél 8 kt
Hőmérséklet 13°C
Páratartalom 67%
Légköri nyomás 1014 hPa
Látótávolság: 16.1 km
Derült ég

METAR: KDXX 240215Z AUTO 18008KT 10SM CLR 13/07 A2994 RMK AO2

Idő: 21:39 (02:39 UTC)


TAF: hiányzik

Meteorológiai megfigyelések és előrejelzések több, mint 4000 repülőtéren (METAR és TAF jelentéseket).

A térképen piros és sárga pontok jelzik az elérhető meteorológiai állomásokat.

Mozgassa az egeret a pont fölött, hogy megjelenjen az állomás neve.

Azután kattintson az időjárási megfigyelések és előrejelzések megtekintéséhez.

A térkép megváltoztatása: kattintson a fekete keresztel jelölt zöld gombra ráközelítéshez, a vonallal jelölt zöld gombra távolításhoz, vagy a zöld nyilakra a szomszédos térképek eléréséhez.


METAR-TAF: